createdAt,value
2017-12-29T00:00:43.522Z,86.00
2017-12-29T00:03:10.962Z,86.10
2017-12-29T00:05:38.392Z,86.10
2017-12-29T00:08:05.824Z,86.10
2017-12-29T00:10:33.270Z,86.10
2017-12-29T00:13:00.701Z,85.60
2017-12-29T00:15:28.168Z,86.10
2017-12-29T00:17:55.716Z,86.10
2017-12-29T00:20:24.192Z,86.10
2017-12-29T00:22:51.652Z,86.10
2017-12-29T00:25:19.104Z,86.20
2017-12-29T00:27:46.568Z,86.30
2017-12-29T00:30:14.008Z,86.30
2017-12-29T00:32:41.448Z,86.40
2017-12-29T00:35:09.756Z,86.40
2017-12-29T00:37:37.196Z,86.60
2017-12-29T00:40:04.673Z,86.60
2017-12-29T00:42:32.104Z,86.80
2017-12-29T00:44:59.592Z,86.70
2017-12-29T00:47:27.044Z,86.80
2017-12-29T00:49:54.500Z,87.00
2017-12-29T00:52:21.928Z,87.10
2017-12-29T00:54:49.447Z,87.20
2017-12-29T00:57:16.875Z,87.20
2017-12-29T00:59:44.308Z,87.20
2017-12-29T01:02:11.744Z,87.30
2017-12-29T01:04:39.946Z,87.50
2017-12-29T01:07:07.416Z,87.50
2017-12-29T01:09:34.876Z,87.50
2017-12-29T01:12:02.304Z,87.50
2017-12-29T01:14:29.792Z,87.50
2017-12-29T01:16:57.236Z,87.50
2017-12-29T01:19:24.704Z,87.60
2017-12-29T01:21:52.132Z,87.70
2017-12-29T01:24:19.617Z,87.80
2017-12-29T01:26:47.056Z,87.80
2017-12-29T01:29:14.528Z,87.80
2017-12-29T01:31:41.972Z,88.00
2017-12-29T01:34:09.444Z,88.20
2017-12-29T01:36:36.894Z,88.20
2017-12-29T01:39:04.340Z,88.20
2017-12-29T01:41:31.828Z,88.10
2017-12-29T01:43:59.281Z,88.20
2017-12-29T01:46:26.724Z,88.30
2017-12-29T01:48:54.188Z,88.40
2017-12-29T01:51:21.624Z,88.50
2017-12-29T01:53:49.069Z,88.60
2017-12-29T01:56:17.265Z,88.70
2017-12-29T01:58:44.702Z,88.80
2017-12-29T02:01:12.904Z,88.70
2017-12-29T02:03:41.192Z,88.70
2017-12-29T02:06:08.607Z,88.60
2017-12-29T02:08:36.811Z,88.60
2017-12-29T02:11:04.273Z,88.60
2017-12-29T02:13:31.710Z,88.50
2017-12-29T02:15:59.172Z,88.50
2017-12-29T02:18:26.588Z,88.50
2017-12-29T02:20:54.106Z,88.70
2017-12-29T02:23:21.552Z,88.70
2017-12-29T02:25:48.980Z,88.80
2017-12-29T02:28:17.177Z,89.00
2017-12-29T02:30:44.616Z,89.00
2017-12-29T02:33:12.045Z,89.10
2017-12-29T02:35:40.001Z,89.00
2017-12-29T02:38:07.528Z,89.20
2017-12-29T02:40:34.992Z,89.20
2017-12-29T02:43:02.425Z,89.40
2017-12-29T02:45:29.867Z,89.40
2017-12-29T02:47:58.072Z,89.50
2017-12-29T02:50:25.536Z,89.50
2017-12-29T02:52:53.004Z,89.50
2017-12-29T02:55:20.492Z,89.60
2017-12-29T02:57:48.020Z,89.60
2017-12-29T03:00:15.472Z,89.70
2017-12-29T03:02:42.909Z,89.80
2017-12-29T03:05:10.336Z,89.70
2017-12-29T03:07:38.572Z,89.80
2017-12-29T03:10:06.024Z,89.80
2017-12-29T03:12:33.472Z,89.70
2017-12-29T03:15:00.932Z,89.70
2017-12-29T03:17:28.376Z,89.70
2017-12-29T03:19:55.796Z,89.70
2017-12-29T03:22:24.021Z,89.80
2017-12-29T03:24:51.462Z,89.70
2017-12-29T03:27:18.936Z,89.70
2017-12-29T03:29:46.496Z,89.80
2017-12-29T03:32:13.937Z,89.80
2017-12-29T03:34:41.348Z,89.80
2017-12-29T03:37:09.604Z,90.00
2017-12-29T03:39:37.060Z,90.00
2017-12-29T03:42:04.606Z,90.30
2017-12-29T03:44:32.050Z,90.00
2017-12-29T03:46:59.479Z,90.00
2017-12-29T03:49:26.964Z,90.00
2017-12-29T03:51:54.409Z,90.10
2017-12-29T03:54:21.840Z,90.40
2017-12-29T03:56:50.061Z,90.10
2017-12-29T03:59:17.517Z,90.10
2017-12-29T04:01:44.940Z,90.10
2017-12-29T04:04:12.368Z,90.10
2017-12-29T04:06:40.605Z,90.20
2017-12-29T04:09:08.046Z,90.10
2017-12-29T04:11:35.478Z,90.10
2017-12-29T04:14:03.696Z,90.10
2017-12-29T04:16:31.129Z,90.10
2017-12-29T04:18:58.601Z,90.10
2017-12-29T04:21:26.048Z,90.10
2017-12-29T04:23:53.472Z,90.10
2017-12-29T04:26:21.679Z,90.10
2017-12-29T04:28:49.147Z,90.10
2017-12-29T04:31:16.583Z,90.10
2017-12-29T04:33:44.009Z,90.10
2017-12-29T04:36:12.225Z,90.20
2017-12-29T04:38:39.704Z,90.20
2017-12-29T04:41:07.128Z,90.20
2017-12-29T04:43:34.583Z,90.20
2017-12-29T04:46:02.020Z,90.20
2017-12-29T04:48:30.219Z,90.20
2017-12-29T04:50:57.661Z,90.20
2017-12-29T04:53:25.156Z,90.20
2017-12-29T04:55:52.608Z,90.20
2017-12-29T04:58:20.057Z,90.20
2017-12-29T05:00:47.525Z,90.20
2017-12-29T05:03:14.980Z,90.20
2017-12-29T05:05:42.432Z,90.20
2017-12-29T05:08:09.868Z,90.20
2017-12-29T05:10:37.309Z,90.10
2017-12-29T05:13:05.520Z,90.20
2017-12-29T05:15:32.965Z,90.20
2017-12-29T05:18:00.388Z,90.20
2017-12-29T05:20:28.721Z,90.20
2017-12-29T05:22:56.156Z,90.30
2017-12-29T05:25:23.588Z,90.20
2017-12-29T05:27:51.810Z,90.30
2017-12-29T05:30:19.264Z,90.20
2017-12-29T05:32:46.696Z,90.30
2017-12-29T05:35:14.177Z,90.30
2017-12-29T05:37:41.635Z,90.30
2017-12-29T05:40:09.092Z,90.30
2017-12-29T05:42:36.540Z,90.30
2017-12-29T05:45:03.974Z,90.30
2017-12-29T05:47:31.410Z,90.30
2017-12-29T05:49:59.640Z,90.30
2017-12-29T05:52:27.096Z,90.30
2017-12-29T05:54:54.560Z,90.30
2017-12-29T05:57:22.004Z,90.20
2017-12-29T05:59:49.472Z,90.30
2017-12-29T06:02:16.912Z,90.30
2017-12-29T06:04:44.359Z,90.30
2017-12-29T06:07:11.856Z,90.30
2017-12-29T06:09:39.291Z,90.30
2017-12-29T06:12:06.768Z,90.30
2017-12-29T06:14:34.207Z,90.30
2017-12-29T06:17:01.664Z,90.30
2017-12-29T06:19:29.112Z,90.30
2017-12-29T06:21:56.586Z,90.30
2017-12-29T06:24:24.040Z,90.20
2017-12-29T06:26:51.489Z,90.20
2017-12-29T06:29:18.935Z,90.10
2017-12-29T06:31:46.404Z,90.10
2017-12-29T06:34:13.856Z,90.00
2017-12-29T06:36:41.300Z,90.00
2017-12-29T06:39:08.780Z,90.10
2017-12-29T06:41:36.226Z,90.20
2017-12-29T06:44:04.104Z,90.10
2017-12-29T06:46:31.547Z,90.10
2017-12-29T06:48:59.034Z,90.20
2017-12-29T06:51:26.476Z,90.20
2017-12-29T06:53:53.912Z,90.20
2017-12-29T06:56:21.345Z,90.20
2017-12-29T06:58:49.549Z,90.20
2017-12-29T07:01:16.976Z,90.20
2017-12-29T07:03:45.188Z,90.30
2017-12-29T07:06:12.620Z,90.30
2017-12-29T07:08:40.048Z,90.30
2017-12-29T07:11:07.564Z,90.30
2017-12-29T07:13:35.001Z,90.10
2017-12-29T07:16:02.426Z,90.30
2017-12-29T07:18:30.639Z,90.20
2017-12-29T07:20:58.064Z,90.20
2017-12-29T07:23:26.257Z,90.20
2017-12-29T07:25:53.692Z,90.20
2017-12-29T07:28:21.916Z,90.30
2017-12-29T07:30:49.348Z,90.30
2017-12-29T07:33:16.793Z,90.30
2017-12-29T07:35:44.996Z,90.40
2017-12-29T07:38:12.508Z,90.40
2017-12-29T07:40:40.749Z,90.50
2017-12-29T07:43:08.200Z,90.50
2017-12-29T07:45:35.632Z,90.60
2017-12-29T07:48:03.081Z,90.60
2017-12-29T07:50:30.578Z,90.60
2017-12-29T07:52:58.132Z,90.60
2017-12-29T07:55:26.365Z,90.60
2017-12-29T07:57:54.579Z,90.60
2017-12-29T08:00:22.040Z,90.60
2017-12-29T08:02:49.479Z,90.60
2017-12-29T08:05:17.435Z,90.60
2017-12-29T08:07:44.871Z,90.60
2017-12-29T08:10:13.095Z,90.70
2017-12-29T08:12:40.597Z,90.70
2017-12-29T08:15:08.796Z,91.10
2017-12-29T08:17:36.236Z,90.80
2017-12-29T08:20:05.326Z,90.90
2017-12-29T08:22:33.560Z,90.90
2017-12-29T08:25:01.016Z,90.90
2017-12-29T08:27:28.491Z,90.90
2017-12-29T08:29:55.905Z,90.90
2017-12-29T08:32:23.376Z,90.90
2017-12-29T08:34:50.836Z,91.00
2017-12-29T08:37:18.272Z,91.00
2017-12-29T08:39:45.745Z,91.00
2017-12-29T08:42:13.225Z,91.00
2017-12-29T08:44:40.655Z,91.00
2017-12-29T08:47:08.114Z,91.00
2017-12-29T08:49:35.593Z,91.00
2017-12-29T08:52:03.669Z,91.00
2017-12-29T08:54:31.133Z,91.00
2017-12-29T08:56:59.579Z,91.00
2017-12-29T08:59:27.004Z,91.00
2017-12-29T09:01:55.234Z,91.00
2017-12-29T09:04:22.690Z,90.90
2017-12-29T09:06:50.155Z,91.00
2017-12-29T09:09:17.588Z,91.00
2017-12-29T09:11:45.021Z,90.90
2017-12-29T09:14:12.528Z,90.90
2017-12-29T09:16:39.968Z,90.90
2017-12-29T09:19:07.436Z,90.90
2017-12-29T09:21:34.869Z,90.90
2017-12-29T09:24:02.342Z,90.90
2017-12-29T09:26:29.783Z,90.90
2017-12-29T09:28:57.251Z,90.90
2017-12-29T09:31:24.707Z,90.90
2017-12-29T09:33:52.166Z,90.90
2017-12-29T09:36:19.612Z,90.90
2017-12-29T09:38:47.062Z,90.90
2017-12-29T09:41:14.537Z,90.80
2017-12-29T09:43:41.964Z,90.80
2017-12-29T09:46:09.408Z,90.80
2017-12-29T09:48:37.635Z,90.70
2017-12-29T09:51:05.085Z,90.70
2017-12-29T09:53:32.536Z,90.70
2017-12-29T09:55:59.962Z,90.70
2017-12-29T09:58:27.397Z,90.70
2017-12-29T10:00:55.606Z,90.90
2017-12-29T10:03:23.036Z,90.70
2017-12-29T10:05:51.285Z,90.60
2017-12-29T10:08:18.707Z,90.60
2017-12-29T10:10:46.173Z,90.60
2017-12-29T10:13:13.610Z,90.60
2017-12-29T10:15:41.048Z,90.60
2017-12-29T10:18:09.254Z,90.40
2017-12-29T10:20:36.692Z,90.40
2017-12-29T10:23:04.184Z,90.40
2017-12-29T10:25:31.621Z,90.40
2017-12-29T10:27:59.068Z,90.40
2017-12-29T10:30:27.269Z,90.40
2017-12-29T10:32:54.704Z,90.40
2017-12-29T10:35:22.128Z,90.30
2017-12-29T10:37:50.352Z,90.20
2017-12-29T10:40:17.764Z,90.20
2017-12-29T10:42:45.961Z,90.10
2017-12-29T10:45:13.440Z,90.10
2017-12-29T10:47:40.875Z,90.00
2017-12-29T10:50:08.365Z,90.00
2017-12-29T10:52:35.804Z,89.90
2017-12-29T10:55:03.258Z,89.80
2017-12-29T10:57:30.732Z,89.70
2017-12-29T10:59:58.172Z,90.10
2017-12-29T11:02:25.644Z,89.40
2017-12-29T11:04:53.069Z,89.30
2017-12-29T11:07:20.556Z,89.30
2017-12-29T11:09:48.013Z,89.20
2017-12-29T11:12:15.465Z,89.00
2017-12-29T11:14:43.018Z,89.10
2017-12-29T11:17:10.488Z,88.90
2017-12-29T11:19:37.927Z,88.90
2017-12-29T11:22:05.388Z,88.60
2017-12-29T11:24:32.812Z,88.60
2017-12-29T11:27:01.018Z,89.10
2017-12-29T11:29:28.457Z,88.40
2017-12-29T11:31:55.940Z,88.20
2017-12-29T11:34:23.378Z,88.10
2017-12-29T11:36:50.860Z,88.00
2017-12-29T11:39:18.295Z,87.90
2017-12-29T11:41:45.719Z,87.80
2017-12-29T11:44:13.944Z,87.90
2017-12-29T11:46:41.412Z,87.50
2017-12-29T11:49:08.864Z,87.40
2017-12-29T11:51:36.316Z,87.30
2017-12-29T11:54:03.752Z,87.20
2017-12-29T11:56:31.176Z,87.10
2017-12-29T11:58:59.380Z,88.10
2017-12-29T12:01:26.876Z,87.40
2017-12-29T12:03:54.416Z,87.60
2017-12-29T12:06:21.884Z,87.80
2017-12-29T12:08:49.308Z,88.00
2017-12-29T12:11:16.732Z,88.20
2017-12-29T12:13:44.172Z,88.40
2017-12-29T12:16:11.644Z,89.40
2017-12-29T12:18:39.372Z,89.00
2017-12-29T12:21:06.824Z,89.20
2017-12-29T12:23:34.277Z,89.40
2017-12-29T12:26:01.705Z,89.70
2017-12-29T12:28:29.160Z,89.80
2017-12-29T12:30:57.352Z,90.10
2017-12-29T12:33:24.780Z,90.10
2017-12-29T12:35:52.995Z,90.30
2017-12-29T12:38:20.420Z,90.30
2017-12-29T12:40:48.624Z,90.50
2017-12-29T12:43:16.082Z,90.40
2017-12-29T12:45:43.502Z,90.40
2017-12-29T12:48:11.816Z,90.60
2017-12-29T12:50:39.233Z,90.60
2017-12-29T12:53:07.432Z,90.70
2017-12-29T12:55:34.864Z,90.60
2017-12-29T12:58:03.064Z,90.80
2017-12-29T13:00:30.488Z,90.80
2017-12-29T13:02:58.716Z,90.90
2017-12-29T13:05:26.184Z,90.80
2017-12-29T13:07:53.612Z,90.90
2017-12-29T13:10:21.036Z,90.90
2017-12-29T13:12:49.240Z,91.10
2017-12-29T13:15:16.672Z,91.00
2017-12-29T13:17:44.896Z,91.00
2017-12-29T13:20:12.346Z,91.00
2017-12-29T13:22:39.825Z,91.00
2017-12-29T13:25:07.360Z,91.00
2017-12-29T13:27:34.780Z,91.00
2017-12-29T13:30:11.012Z,91.10
2017-12-29T13:32:42.901Z,91.10
2017-12-29T13:35:11.129Z,91.10
2017-12-29T13:37:38.679Z,91.10
2017-12-29T13:40:06.112Z,91.10
2017-12-29T13:42:33.563Z,91.10
2017-12-29T13:45:01.748Z,91.20
2017-12-29T13:47:29.186Z,91.20
2017-12-29T13:49:57.408Z,91.20
2017-12-29T13:52:24.860Z,91.20
2017-12-29T13:54:52.296Z,91.20
2017-12-29T13:57:19.773Z,91.30
2017-12-29T13:59:47.180Z,91.30
2017-12-29T14:02:15.380Z,91.30
2017-12-29T14:04:42.805Z,91.30
2017-12-29T14:07:10.224Z,91.30
2017-12-29T14:09:37.663Z,91.70
2017-12-29T14:12:05.081Z,91.40
2017-12-29T14:14:33.304Z,91.40
2017-12-29T14:17:00.770Z,91.30
2017-12-29T14:19:28.211Z,91.30
2017-12-29T14:21:55.647Z,91.30
2017-12-29T14:24:23.848Z,91.40
2017-12-29T14:26:51.281Z,91.40
2017-12-29T14:29:18.716Z,91.40
2017-12-29T14:31:46.944Z,91.50
2017-12-29T14:34:14.399Z,91.40
2017-12-29T14:36:41.828Z,91.50
2017-12-29T14:39:09.364Z,91.50
2017-12-29T14:41:37.548Z,91.60
2017-12-29T14:44:05.757Z,91.50
2017-12-29T14:46:33.196Z,91.60
2017-12-29T14:49:01.709Z,91.60
2017-12-29T14:51:29.136Z,91.60
2017-12-29T14:53:56.576Z,91.60
2017-12-29T14:56:24.772Z,91.70
2017-12-29T14:58:52.199Z,91.70
2017-12-29T15:01:20.430Z,91.70
2017-12-29T15:03:47.848Z,91.70
2017-12-29T15:06:15.338Z,91.70
2017-12-29T15:08:42.794Z,91.70
2017-12-29T15:11:10.248Z,91.80
2017-12-29T15:13:37.681Z,91.80
2017-12-29T15:16:05.164Z,91.90
2017-12-29T15:18:32.616Z,91.90
2017-12-29T15:21:00.084Z,91.90
2017-12-29T15:23:27.655Z,91.90
2017-12-29T15:25:55.064Z,91.90
2017-12-29T15:28:22.496Z,91.90
2017-12-29T15:30:50.752Z,92.00
2017-12-29T15:33:18.188Z,92.00
2017-12-29T15:35:45.638Z,92.00
2017-12-29T15:38:13.103Z,92.00
2017-12-29T15:40:40.550Z,92.10
2017-12-29T15:43:07.966Z,92.10
2017-12-29T15:45:36.180Z,92.10
2017-12-29T15:48:03.652Z,92.10
2017-12-29T15:50:31.085Z,92.10
2017-12-29T15:52:58.530Z,92.20
2017-12-29T15:55:26.030Z,92.20
2017-12-29T15:57:53.586Z,92.20
2017-12-29T16:00:21.036Z,92.20
2017-12-29T16:02:48.500Z,92.30
2017-12-29T16:05:15.938Z,92.20
2017-12-29T16:07:43.385Z,92.30
2017-12-29T16:10:10.875Z,92.30
2017-12-29T16:12:38.350Z,92.30
2017-12-29T16:15:05.785Z,92.60
2017-12-29T16:17:33.252Z,92.60
2017-12-29T16:20:00.744Z,92.60
2017-12-29T16:22:28.976Z,92.60
2017-12-29T16:24:56.475Z,92.60
2017-12-29T16:27:23.904Z,92.50
2017-12-29T16:29:51.340Z,92.80
2017-12-29T16:32:18.764Z,92.70
2017-12-29T16:34:46.204Z,92.70
2017-12-29T16:37:14.419Z,92.70
2017-12-29T16:39:41.880Z,92.60
2017-12-29T16:42:09.348Z,92.60
2017-12-29T16:44:36.808Z,92.50
2017-12-29T16:47:04.241Z,92.50
2017-12-29T16:49:31.660Z,92.50
2017-12-29T16:51:59.911Z,92.50
2017-12-29T16:54:27.378Z,92.50
2017-12-29T16:56:54.791Z,92.40
2017-12-29T16:59:22.273Z,92.40
2017-12-29T17:01:49.716Z,92.70
2017-12-29T17:04:17.149Z,92.40
2017-12-29T17:06:44.591Z,92.50
2017-12-29T17:09:12.804Z,92.50
2017-12-29T17:11:40.254Z,92.40
2017-12-29T17:14:07.673Z,92.40
2017-12-29T17:16:35.871Z,92.50
2017-12-29T17:19:03.363Z,92.40
2017-12-29T17:21:30.805Z,92.40
2017-12-29T17:23:58.271Z,92.50
2017-12-29T17:26:25.712Z,92.50
2017-12-29T17:28:53.157Z,92.50
2017-12-29T17:31:20.608Z,92.50
2017-12-29T17:33:48.098Z,92.50
2017-12-29T17:36:15.548Z,92.50
2017-12-29T17:38:43.012Z,92.50
2017-12-29T17:41:10.464Z,92.50
2017-12-29T17:43:37.920Z,92.50
2017-12-29T17:46:05.362Z,92.60
2017-12-29T17:48:32.836Z,92.60
2017-12-29T17:51:00.379Z,92.60
2017-12-29T17:53:27.848Z,92.60
2017-12-29T17:55:55.280Z,92.60
2017-12-29T17:58:22.857Z,92.70
2017-12-29T18:00:50.286Z,92.60
2017-12-29T18:03:18.500Z,92.70
2017-12-29T18:05:45.956Z,92.70
2017-12-29T18:08:13.384Z,92.60
2017-12-29T18:10:40.859Z,92.60
2017-12-29T18:13:08.309Z,92.60
2017-12-29T18:15:35.805Z,92.60
2017-12-29T18:18:03.245Z,92.60
2017-12-29T18:20:30.685Z,92.60
2017-12-29T18:22:58.124Z,92.70
2017-12-29T18:25:25.572Z,92.70
2017-12-29T18:27:53.068Z,92.70
2017-12-29T18:30:20.517Z,92.70
2017-12-29T18:32:47.941Z,92.80
2017-12-29T18:35:16.350Z,92.80
2017-12-29T18:37:43.756Z,92.80
2017-12-29T18:40:11.367Z,92.80
2017-12-29T18:42:38.792Z,92.90
2017-12-29T18:45:06.996Z,92.80
2017-12-29T18:47:34.428Z,92.80
2017-12-29T18:50:01.879Z,92.80
2017-12-29T18:52:30.109Z,92.80
2017-12-29T18:54:57.552Z,92.80
2017-12-29T18:57:25.013Z,92.80
2017-12-29T18:59:52.479Z,92.90
2017-12-29T19:02:19.969Z,92.90
2017-12-29T19:04:47.414Z,92.90
2017-12-29T19:07:14.935Z,93.00
2017-12-29T19:09:42.361Z,93.00
2017-12-29T19:12:10.684Z,93.00
2017-12-29T19:14:38.118Z,93.00
2017-12-29T19:17:05.552Z,93.00
2017-12-29T19:19:33.832Z,93.00
2017-12-29T19:22:01.332Z,93.00
2017-12-29T19:24:28.783Z,93.00
2017-12-29T19:26:56.250Z,93.00
2017-12-29T19:29:23.668Z,93.00
2017-12-29T19:31:51.152Z,93.00
2017-12-29T19:34:18.596Z,93.00
2017-12-29T19:36:46.036Z,93.10
2017-12-29T19:39:13.468Z,93.10
2017-12-29T19:41:41.676Z,93.10
2017-12-29T19:44:09.110Z,93.10
2017-12-29T19:46:37.306Z,93.10
2017-12-29T19:49:04.789Z,93.10
2017-12-29T19:51:32.221Z,93.10
2017-12-29T19:53:59.704Z,93.10
2017-12-29T19:56:27.152Z,93.10
2017-12-29T19:58:54.625Z,93.10
2017-12-29T20:01:22.059Z,93.10
2017-12-29T20:03:49.504Z,93.10
2017-12-29T20:06:16.944Z,93.10
2017-12-29T20:08:45.147Z,93.10
2017-12-29T20:11:12.613Z,93.10
2017-12-29T20:13:40.112Z,93.10
2017-12-29T20:16:07.556Z,93.10
2017-12-29T20:18:35.104Z,93.40
2017-12-29T20:21:02.563Z,93.00
2017-12-29T20:23:30.007Z,93.00
2017-12-29T20:25:57.462Z,93.00
2017-12-29T20:28:24.908Z,93.00
2017-12-29T20:30:52.340Z,92.90
2017-12-29T20:33:20.553Z,92.90
2017-12-29T20:35:48.018Z,92.90
2017-12-29T20:38:15.557Z,92.80
2017-12-29T20:40:43.014Z,92.80
2017-12-29T20:43:10.436Z,92.80
2017-12-29T20:45:38.655Z,92.70
2017-12-29T20:48:06.152Z,92.70
2017-12-29T20:50:33.529Z,92.70
2017-12-29T20:53:01.744Z,92.70
2017-12-29T20:55:29.310Z,92.70
2017-12-29T20:57:56.853Z,92.70
2017-12-29T21:00:24.260Z,92.60
2017-12-29T21:02:51.700Z,92.50
2017-12-29T21:05:19.128Z,92.50
2017-12-29T21:07:46.571Z,92.50
2017-12-29T21:10:14.009Z,92.50
2017-12-29T21:12:42.314Z,92.40
2017-12-29T21:15:09.788Z,92.40
2017-12-29T21:17:37.253Z,92.30
2017-12-29T21:20:04.668Z,92.30
2017-12-29T21:22:32.233Z,92.10
2017-12-29T21:24:59.776Z,92.00
2017-12-29T21:27:27.291Z,92.00
2017-12-29T21:29:54.715Z,92.00
2017-12-29T21:32:22.211Z,91.90
2017-12-29T21:34:49.651Z,91.90
2017-12-29T21:37:17.088Z,91.90
2017-12-29T21:39:44.516Z,92.00
2017-12-29T21:42:12.822Z,92.00
2017-12-29T21:44:40.293Z,92.00
2017-12-29T21:47:07.756Z,92.00
2017-12-29T21:49:35.180Z,92.00
2017-12-29T21:52:02.660Z,92.00
2017-12-29T21:54:30.211Z,92.00
2017-12-29T21:56:57.672Z,92.00
2017-12-29T21:59:25.108Z,92.00
2017-12-29T22:01:52.620Z,92.00
2017-12-29T22:04:20.052Z,92.00
2017-12-29T22:06:47.497Z,92.00
2017-12-29T22:09:14.928Z,92.00
2017-12-29T22:11:43.140Z,91.90
2017-12-29T22:14:10.569Z,91.90
2017-12-29T22:16:38.070Z,91.90
2017-12-29T22:19:05.508Z,91.90
2017-12-29T22:21:32.943Z,92.30
2017-12-29T22:24:00.380Z,92.00
2017-12-29T22:26:28.576Z,92.00
2017-12-29T22:28:56.043Z,92.30
2017-12-29T22:31:23.480Z,92.00
2017-12-29T22:33:50.968Z,92.00
2017-12-29T22:36:18.442Z,92.00
2017-12-29T22:38:46.087Z,91.90
2017-12-29T22:41:13.516Z,91.90
2017-12-29T22:43:40.999Z,91.90
2017-12-29T22:46:08.432Z,91.90
2017-12-29T22:48:35.861Z,91.80
2017-12-29T22:51:04.052Z,91.70
2017-12-29T22:53:31.508Z,91.70
2017-12-29T22:55:59.724Z,91.60
2017-12-29T22:58:27.184Z,91.60
2017-12-29T23:00:54.621Z,91.60
2017-12-29T23:03:22.070Z,91.50
2017-12-29T23:05:50.244Z,91.50
2017-12-29T23:08:17.688Z,91.50
2017-12-29T23:10:45.177Z,91.40
2017-12-29T23:13:12.613Z,91.50
2017-12-29T23:15:40.096Z,91.40
2017-12-29T23:18:07.576Z,91.40
2017-12-29T23:20:34.980Z,91.30
2017-12-29T23:23:02.465Z,91.30
2017-12-29T23:25:29.925Z,91.20
2017-12-29T23:27:57.380Z,91.20
2017-12-29T23:30:24.846Z,91.20
2017-12-29T23:32:52.286Z,91.10
2017-12-29T23:35:19.700Z,91.10
2017-12-29T23:37:47.915Z,91.00
2017-12-29T23:40:15.374Z,91.00
2017-12-29T23:42:42.777Z,90.90
2017-12-29T23:45:10.212Z,90.90
2017-12-29T23:47:37.668Z,90.90
2017-12-29T23:50:05.085Z,90.80
2017-12-29T23:52:32.536Z,90.70
2017-12-29T23:54:59.960Z,90.70
2017-12-29T23:57:27.480Z,90.60
2017-12-29T23:59:54.940Z,90.40
